Isle of Bute, United Kingdom
Current Conditions -  °F | °C
As of 8:20 PM on Saturday 20 Dec 2014 (Local Time) from EGPF Reporting Station
Light Rain Light Rain  
Wind Chill: 37°   Ceiling: 2200
Heat Index: 43°   Visibility: 5mi
Dew Point: 43°   Wind: 9mph
Humidity: 100%   Direction: 220°SW
Pressure: 30.21"   Gusts: NA
Location:  55.84°N, 5.05°W
Report Text: EGPF 202020Z AUTO 22008KT 8000 -RA SCT010 BKN022 06/06 Q1023 RERA
Loading
Personal Weather Stations






























Interactive Weather Map New forecast layout! Learn more

10-Day Weather Forecast

Advertisements
Track Severe Weather on mobile